sensor_id;sensor_type;location;lat;lon;timestamp;P1;durP1;ratioP1;P2;durP2;ratioP2
67248;SDS011;63247;54.300;18.592;2023-06-04T00:00:24;5.77;;;1.50;;
67248;SDS011;63247;54.300;18.592;2023-06-04T00:02:50;4.90;;;1.80;;
67248;SDS011;63247;54.300;18.592;2023-06-04T00:05:16;3.38;;;1.30;;
67248;SDS011;63247;54.300;18.592;2023-06-04T00:07:42;4.70;;;1.60;;
67248;SDS011;63247;54.300;18.592;2023-06-04T00:10:07;6.17;;;1.30;;
67248;SDS011;63247;54.300;18.592;2023-06-04T00:12:33;4.68;;;1.45;;
67248;SDS011;63247;54.300;18.592;2023-06-04T00:14:58;5.27;;;1.70;;
67248;SDS011;63247;54.300;18.592;2023-06-04T00:17:24;9.90;;;2.03;;
67248;SDS011;63247;54.300;18.592;2023-06-04T00:19:49;6.80;;;2.10;;
67248;SDS011;63247;54.300;18.592;2023-06-04T00:22:15;5.40;;;1.77;;
67248;SDS011;63247;54.300;18.592;2023-06-04T00:24:40;6.33;;;1.83;;
67248;SDS011;63247;54.300;18.592;2023-06-04T00:27:06;7.40;;;1.90;;
67248;SDS011;63247;54.300;18.592;2023-06-04T00:29:33;8.23;;;1.80;;
67248;SDS011;63247;54.300;18.592;2023-06-04T00:31:59;5.13;;;1.60;;
67248;SDS011;63247;54.300;18.592;2023-06-04T00:34:24;4.97;;;1.67;;
67248;SDS011;63247;54.300;18.592;2023-06-04T00:36:50;6.47;;;2.07;;
67248;SDS011;63247;54.300;18.592;2023-06-04T00:39:15;5.43;;;1.70;;
67248;SDS011;63247;54.300;18.592;2023-06-04T00:41:41;6.45;;;1.80;;
67248;SDS011;63247;54.300;18.592;2023-06-04T00:44:06;7.07;;;1.90;;
67248;SDS011;63247;54.300;18.592;2023-06-04T00:46:31;4.97;;;1.80;;
67248;SDS011;63247;54.300;18.592;2023-06-04T00:48:57;5.50;;;1.50;;
67248;SDS011;63247;54.300;18.592;2023-06-04T00:51:23;6.00;;;1.60;;
67248;SDS011;63247;54.300;18.592;2023-06-04T00:53:49;5.93;;;1.50;;
67248;SDS011;63247;54.300;18.592;2023-06-04T00:56:15;3.90;;;1.58;;
67248;SDS011;63247;54.300;18.592;2023-06-04T00:58:40;5.95;;;1.58;;
67248;SDS011;63247;54.300;18.592;2023-06-04T01:01:09;3.88;;;1.50;;
67248;SDS011;63247;54.300;18.592;2023-06-04T01:03:41;6.33;;;1.60;;
67248;SDS011;63247;54.300;18.592;2023-06-04T01:06:13;4.78;;;1.40;;
67248;SDS011;63247;54.300;18.592;2023-06-04T01:08:49;4.90;;;1.77;;
67248;SDS011;63247;54.300;18.592;2023-06-04T01:11:16;4.65;;;1.63;;
67248;SDS011;63247;54.300;18.592;2023-06-04T01:13:41;5.53;;;1.70;;
67248;SDS011;63247;54.300;18.592;2023-06-04T01:16:07;9.90;;;1.67;;
67248;SDS011;63247;54.300;18.592;2023-06-04T01:18:35;4.82;;;1.50;;
67248;SDS011;63247;54.300;18.592;2023-06-04T01:21:06;5.38;;;1.80;;
67248;SDS011;63247;54.300;18.592;2023-06-04T01:23:38;5.03;;;1.50;;
67248;SDS011;63247;54.300;18.592;2023-06-04T01:26:10;4.35;;;1.30;;
67248;SDS011;63247;54.300;18.592;2023-06-04T01:28:37;4.87;;;1.37;;
67248;SDS011;63247;54.300;18.592;2023-06-04T01:31:03;4.28;;;1.30;;
67248;SDS011;63247;54.300;18.592;2023-06-04T01:33:32;7.22;;;1.92;;
67248;SDS011;63247;54.300;18.592;2023-06-04T01:35:58;6.20;;;1.50;;
67248;SDS011;63247;54.300;18.592;2023-06-04T01:38:24;4.32;;;1.23;;
67248;SDS011;63247;54.300;18.592;2023-06-04T01:40:50;4.93;;;1.30;;
67248;SDS011;63247;54.300;18.592;2023-06-04T01:43:18;5.80;;;1.35;;
67248;SDS011;63247;54.300;18.592;2023-06-04T01:45:43;3.70;;;1.20;;
67248;SDS011;63247;54.300;18.592;2023-06-04T01:48:09;5.37;;;1.47;;
67248;SDS011;63247;54.300;18.592;2023-06-04T01:50:34;3.60;;;1.00;;
67248;SDS011;63247;54.300;18.592;2023-06-04T01:52:59;5.18;;;1.77;;
67248;SDS011;63247;54.300;18.592;2023-06-04T01:55:25;3.83;;;1.30;;
67248;SDS011;63247;54.300;18.592;2023-06-04T01:57:51;4.37;;;1.20;;
67248;SDS011;63247;54.300;18.592;2023-06-04T02:00:16;4.93;;;1.13;;
67248;SDS011;63247;54.300;18.592;2023-06-04T02:02:44;4.67;;;1.40;;
67248;SDS011;63247;54.300;18.592;2023-06-04T02:05:14;3.95;;;1.42;;
67248;SDS011;63247;54.300;18.592;2023-06-04T02:07:40;4.05;;;1.30;;
67248;SDS011;63247;54.300;18.592;2023-06-04T02:10:07;3.92;;;1.20;;
67248;SDS011;63247;54.300;18.592;2023-06-04T02:12:38;3.10;;;1.30;;
67248;SDS011;63247;54.300;18.592;2023-06-04T02:15:17;3.75;;;1.30;;
67248;SDS011;63247;54.300;18.592;2023-06-04T02:17:43;3.35;;;1.20;;
67248;SDS011;63247;54.300;18.592;2023-06-04T02:20:10;4.70;;;1.40;;
67248;SDS011;63247;54.300;18.592;2023-06-04T02:22:36;4.30;;;1.23;;
67248;SDS011;63247;54.300;18.592;2023-06-04T02:25:02;3.90;;;1.33;;
67248;SDS011;63247;54.300;18.592;2023-06-04T02:27:28;5.65;;;1.17;;
67248;SDS011;63247;54.300;18.592;2023-06-04T02:29:54;3.90;;;1.30;;
67248;SDS011;63247;54.300;18.592;2023-06-04T02:32:19;3.50;;;1.30;;
67248;SDS011;63247;54.300;18.592;2023-06-04T02:34:45;4.43;;;1.33;;
67248;SDS011;63247;54.300;18.592;2023-06-04T02:37:10;10.87;;;1.30;;
67248;SDS011;63247;54.300;18.592;2023-06-04T02:39:35;4.88;;;1.30;;
67248;SDS011;63247;54.300;18.592;2023-06-04T02:42:01;3.70;;;1.20;;
67248;SDS011;63247;54.300;18.592;2023-06-04T02:44:26;4.80;;;1.00;;
67248;SDS011;63247;54.300;18.592;2023-06-04T02:46:54;6.25;;;1.38;;
67248;SDS011;63247;54.300;18.592;2023-06-04T02:49:19;3.50;;;1.30;;
67248;SDS011;63247;54.300;18.592;2023-06-04T02:51:45;3.30;;;1.10;;
67248;SDS011;63247;54.300;18.592;2023-06-04T02:54:11;3.78;;;1.20;;
67248;SDS011;63247;54.300;18.592;2023-06-04T02:56:37;3.20;;;1.07;;
67248;SDS011;63247;54.300;18.592;2023-06-04T02:59:03;4.80;;;1.40;;
67248;SDS011;63247;54.300;18.592;2023-06-04T03:01:29;6.97;;;1.43;;
67248;SDS011;63247;54.300;18.592;2023-06-04T03:03:54;3.63;;;1.40;;
67248;SDS011;63247;54.300;18.592;2023-06-04T03:06:21;6.00;;;1.42;;
67248;SDS011;63247;54.300;18.592;2023-06-04T03:08:47;4.50;;;1.10;;
67248;SDS011;63247;54.300;18.592;2023-06-04T03:11:13;3.53;;;1.30;;
67248;SDS011;63247;54.300;18.592;2023-06-04T03:13:39;4.15;;;1.10;;
67248;SDS011;63247;54.300;18.592;2023-06-04T03:16:05;4.17;;;1.00;;
67248;SDS011;63247;54.300;18.592;2023-06-04T03:18:35;3.90;;;1.33;;
67248;SDS011;63247;54.300;18.592;2023-06-04T03:21:02;5.10;;;1.20;;
67248;SDS011;63247;54.300;18.592;2023-06-04T03:23:28;4.95;;;1.52;;
67248;SDS011;63247;54.300;18.592;2023-06-04T03:25:54;4.23;;;1.30;;
67248;SDS011;63247;54.300;18.592;2023-06-04T03:28:19;4.43;;;1.30;;
67248;SDS011;63247;54.300;18.592;2023-06-04T03:30:45;4.38;;;1.20;;
67248;SDS011;63247;54.300;18.592;2023-06-04T03:33:10;3.53;;;1.27;;
67248;SDS011;63247;54.300;18.592;2023-06-04T03:35:35;5.63;;;1.20;;
67248;SDS011;63247;54.300;18.592;2023-06-04T03:38:01;3.27;;;1.20;;
67248;SDS011;63247;54.300;18.592;2023-06-04T03:40:26;4.78;;;1.10;;
67248;SDS011;63247;54.300;18.592;2023-06-04T03:42:52;3.00;;;0.98;;
67248;SDS011;63247;54.300;18.592;2023-06-04T03:45:17;3.73;;;1.20;;
67248;SDS011;63247;54.300;18.592;2023-06-04T03:47:42;5.37;;;0.97;;
67248;SDS011;63247;54.300;18.592;2023-06-04T03:50:08;3.53;;;1.27;;
67248;SDS011;63247;54.300;18.592;2023-06-04T03:52:33;3.58;;;1.20;;
67248;SDS011;63247;54.300;18.592;2023-06-04T03:54:59;4.35;;;1.20;;
67248;SDS011;63247;54.300;18.592;2023-06-04T03:57:25;5.32;;;1.50;;
67248;SDS011;63247;54.300;18.592;2023-06-04T03:59:50;4.27;;;1.40;;
67248;SDS011;63247;54.300;18.592;2023-06-04T04:02:16;5.50;;;1.50;;
67248;SDS011;63247;54.300;18.592;2023-06-04T04:04:44;4.60;;;1.33;;
67248;SDS011;63247;54.300;18.592;2023-06-04T04:07:09;4.07;;;1.43;;
67248;SDS011;63247;54.300;18.592;2023-06-04T04:09:35;6.90;;;1.48;;
67248;SDS011;63247;54.300;18.592;2023-06-04T04:12:01;5.87;;;1.33;;
67248;SDS011;63247;54.300;18.592;2023-06-04T04:14:26;4.28;;;1.40;;
67248;SDS011;63247;54.300;18.592;2023-06-04T04:16:52;3.37;;;1.30;;
67248;SDS011;63247;54.300;18.592;2023-06-04T04:19:17;4.27;;;1.57;;
67248;SDS011;63247;54.300;18.592;2023-06-04T04:21:43;5.43;;;1.60;;
67248;SDS011;63247;54.300;18.592;2023-06-04T04:24:08;5.27;;;1.73;;
67248;SDS011;63247;54.300;18.592;2023-06-04T04:26:34;4.43;;;1.60;;
67248;SDS011;63247;54.300;18.592;2023-06-04T04:29:00;3.20;;;1.40;;
67248;SDS011;63247;54.300;18.592;2023-06-04T04:31:26;4.38;;;1.75;;
67248;SDS011;63247;54.300;18.592;2023-06-04T04:33:52;4.93;;;1.50;;
67248;SDS011;63247;54.300;18.592;2023-06-04T04:36:19;4.13;;;1.50;;
67248;SDS011;63247;54.300;18.592;2023-06-04T04:38:44;3.50;;;1.40;;
67248;SDS011;63247;54.300;18.592;2023-06-04T04:41:19;4.43;;;1.40;;
67248;SDS011;63247;54.300;18.592;2023-06-04T04:43:47;3.60;;;1.50;;
67248;SDS011;63247;54.300;18.592;2023-06-04T04:46:13;3.30;;;1.27;;
67248;SDS011;63247;54.300;18.592;2023-06-04T04:48:38;3.88;;;1.50;;
67248;SDS011;63247;54.300;18.592;2023-06-04T04:51:05;4.85;;;1.55;;
67248;SDS011;63247;54.300;18.592;2023-06-04T04:53:31;5.45;;;1.63;;
67248;SDS011;63247;54.300;18.592;2023-06-04T04:55:57;3.77;;;1.40;;
67248;SDS011;63247;54.300;18.592;2023-06-04T04:58:22;5.18;;;1.50;;
67248;SDS011;63247;54.300;18.592;2023-06-04T05:00:47;4.68;;;1.70;;
67248;SDS011;63247;54.300;18.592;2023-06-04T05:03:13;3.87;;;1.57;;
67248;SDS011;63247;54.300;18.592;2023-06-04T05:05:39;5.28;;;1.92;;
67248;SDS011;63247;54.300;18.592;2023-06-04T05:08:04;3.80;;;1.57;;
67248;SDS011;63247;54.300;18.592;2023-06-04T05:10:30;4.07;;;1.60;;
67248;SDS011;63247;54.300;18.592;2023-06-04T05:12:59;3.70;;;1.77;;
67248;SDS011;63247;54.300;18.592;2023-06-04T05:15:25;4.72;;;1.70;;
67248;SDS011;63247;54.300;18.592;2023-06-04T05:17:51;4.75;;;1.70;;
67248;SDS011;63247;54.300;18.592;2023-06-04T05:20:18;4.57;;;1.83;;
67248;SDS011;63247;54.300;18.592;2023-06-04T05:22:45;4.68;;;1.70;;
67248;SDS011;63247;54.300;18.592;2023-06-04T05:25:11;4.32;;;1.60;;
67248;SDS011;63247;54.300;18.592;2023-06-04T05:27:37;4.57;;;1.90;;
67248;SDS011;63247;54.300;18.592;2023-06-04T05:30:03;3.80;;;1.65;;
67248;SDS011;63247;54.300;18.592;2023-06-04T05:32:29;4.57;;;1.80;;
67248;SDS011;63247;54.300;18.592;2023-06-04T05:34:57;3.93;;;1.90;;
67248;SDS011;63247;54.300;18.592;2023-06-04T05:37:24;4.40;;;1.70;;
67248;SDS011;63247;54.300;18.592;2023-06-04T05:39:51;6.45;;;1.70;;
67248;SDS011;63247;54.300;18.592;2023-06-04T05:42:17;5.70;;;1.80;;
67248;SDS011;63247;54.300;18.592;2023-06-04T05:44:42;4.57;;;1.80;;
67248;SDS011;63247;54.300;18.592;2023-06-04T05:47:08;3.53;;;1.50;;
67248;SDS011;63247;54.300;18.592;2023-06-04T05:49:34;2.90;;;1.50;;
67248;SDS011;63247;54.300;18.592;2023-06-04T05:51:59;6.38;;;2.05;;
67248;SDS011;63247;54.300;18.592;2023-06-04T05:54:26;5.82;;;1.70;;
67248;SDS011;63247;54.300;18.592;2023-06-04T05:56:52;6.32;;;1.80;;
67248;SDS011;63247;54.300;18.592;2023-06-04T05:59:17;5.97;;;1.60;;
67248;SDS011;63247;54.300;18.592;2023-06-04T06:01:43;3.43;;;1.50;;
67248;SDS011;63247;54.300;18.592;2023-06-04T06:04:08;3.20;;;1.33;;
67248;SDS011;63247;54.300;18.592;2023-06-04T06:06:34;4.28;;;1.40;;
67248;SDS011;63247;54.300;18.592;2023-06-04T06:09:00;4.17;;;1.60;;
67248;SDS011;63247;54.300;18.592;2023-06-04T06:11:26;3.53;;;1.42;;
67248;SDS011;63247;54.300;18.592;2023-06-04T06:13:52;4.82;;;1.40;;
67248;SDS011;63247;54.300;18.592;2023-06-04T06:16:17;3.40;;;1.50;;
67248;SDS011;63247;54.300;18.592;2023-06-04T06:18:43;4.30;;;1.52;;
67248;SDS011;63247;54.300;18.592;2023-06-04T06:21:08;4.73;;;1.80;;
67248;SDS011;63247;54.300;18.592;2023-06-04T06:23:34;3.43;;;1.40;;
67248;SDS011;63247;54.300;18.592;2023-06-04T06:25:59;4.67;;;1.43;;
67248;SDS011;63247;54.300;18.592;2023-06-04T06:28:26;3.88;;;1.48;;
67248;SDS011;63247;54.300;18.592;2023-06-04T06:30:52;4.30;;;1.80;;
67248;SDS011;63247;54.300;18.592;2023-06-04T06:33:18;5.57;;;1.70;;
67248;SDS011;63247;54.300;18.592;2023-06-04T06:35:46;3.60;;;1.50;;
67248;SDS011;63247;54.300;18.592;2023-06-04T06:38:14;3.60;;;1.60;;
67248;SDS011;63247;54.300;18.592;2023-06-04T06:40:40;5.00;;;1.50;;
67248;SDS011;63247;54.300;18.592;2023-06-04T06:43:05;4.17;;;1.57;;
67248;SDS011;63247;54.300;18.592;2023-06-04T06:45:31;3.67;;;1.50;;
67248;SDS011;63247;54.300;18.592;2023-06-04T06:47:56;5.32;;;1.58;;
67248;SDS011;63247;54.300;18.592;2023-06-04T06:50:22;3.33;;;1.37;;
67248;SDS011;63247;54.300;18.592;2023-06-04T06:52:47;4.03;;;1.80;;
67248;SDS011;63247;54.300;18.592;2023-06-04T06:55:13;4.83;;;1.73;;
67248;SDS011;63247;54.300;18.592;2023-06-04T06:57:38;4.88;;;1.83;;
67248;SDS011;63247;54.300;18.592;2023-06-04T07:00:04;5.07;;;1.70;;
67248;SDS011;63247;54.300;18.592;2023-06-04T07:02:30;6.40;;;1.80;;
67248;SDS011;63247;54.300;18.592;2023-06-04T07:04:56;5.13;;;1.80;;
67248;SDS011;63247;54.300;18.592;2023-06-04T07:07:21;6.53;;;1.63;;
67248;SDS011;63247;54.300;18.592;2023-06-04T07:09:47;2.60;;;1.50;;
67248;SDS011;63247;54.300;18.592;2023-06-04T07:12:13;3.07;;;1.60;;
67248;SDS011;63247;54.300;18.592;2023-06-04T07:14:38;3.40;;;1.73;;
67248;SDS011;63247;54.300;18.592;2023-06-04T07:17:03;6.40;;;1.80;;
67248;SDS011;63247;54.300;18.592;2023-06-04T07:19:29;3.60;;;1.60;;
67248;SDS011;63247;54.300;18.592;2023-06-04T07:21:54;3.10;;;1.40;;
67248;SDS011;63247;54.300;18.592;2023-06-04T07:24:23;5.80;;;1.42;;
67248;SDS011;63247;54.300;18.592;2023-06-04T07:26:48;3.10;;;1.60;;
67248;SDS011;63247;54.300;18.592;2023-06-04T07:29:14;2.60;;;1.53;;
67248;SDS011;63247;54.300;18.592;2023-06-04T07:31:40;5.77;;;1.70;;
67248;SDS011;63247;54.300;18.592;2023-06-04T07:34:06;3.35;;;1.50;;
67248;SDS011;63247;54.300;18.592;2023-06-04T07:36:31;3.00;;;1.50;;
67248;SDS011;63247;54.300;18.592;2023-06-04T07:38:57;5.68;;;1.63;;
67248;SDS011;63247;54.300;18.592;2023-06-04T07:41:23;5.20;;;1.70;;
67248;SDS011;63247;54.300;18.592;2023-06-04T07:43:49;6.83;;;1.70;;
67248;SDS011;63247;54.300;18.592;2023-06-04T07:46:14;5.33;;;1.77;;
67248;SDS011;63247;54.300;18.592;2023-06-04T07:48:43;4.68;;;1.42;;
67248;SDS011;63247;54.300;18.592;2023-06-04T07:51:09;3.45;;;1.40;;
67248;SDS011;63247;54.300;18.592;2023-06-04T07:53:36;3.00;;;1.50;;
67248;SDS011;63247;54.300;18.592;2023-06-04T07:56:03;5.20;;;1.50;;
67248;SDS011;63247;54.300;18.592;2023-06-04T07:58:28;3.50;;;1.42;;
67248;SDS011;63247;54.300;18.592;2023-06-04T08:00:54;3.93;;;1.67;;
67248;SDS011;63247;54.300;18.592;2023-06-04T08:03:20;4.75;;;1.65;;
67248;SDS011;63247;54.300;18.592;2023-06-04T08:05:46;3.72;;;1.50;;
67248;SDS011;63247;54.300;18.592;2023-06-04T08:08:11;3.40;;;1.30;;
67248;SDS011;63247;54.300;18.592;2023-06-04T08:10:36;2.83;;;1.50;;
67248;SDS011;63247;54.300;18.592;2023-06-04T08:13:04;3.13;;;1.40;;
67248;SDS011;63247;54.300;18.592;2023-06-04T08:15:30;2.87;;;1.50;;
67248;SDS011;63247;54.300;18.592;2023-06-04T08:17:55;2.40;;;1.50;;
67248;SDS011;63247;54.300;18.592;2023-06-04T08:20:21;3.80;;;1.40;;
67248;SDS011;63247;54.300;18.592;2023-06-04T08:22:47;4.22;;;1.60;;
67248;SDS011;63247;54.300;18.592;2023-06-04T08:25:12;4.40;;;1.60;;
67248;SDS011;63247;54.300;18.592;2023-06-04T08:27:39;2.95;;;1.33;;
67248;SDS011;63247;54.300;18.592;2023-06-04T08:30:05;3.00;;;1.40;;
67248;SDS011;63247;54.300;18.592;2023-06-04T08:32:31;3.72;;;1.10;;
67248;SDS011;63247;54.300;18.592;2023-06-04T08:34:56;3.40;;;1.20;;
67248;SDS011;63247;54.300;18.592;2023-06-04T08:37:21;2.97;;;1.37;;
67248;SDS011;63247;54.300;18.592;2023-06-04T08:39:49;2.60;;;1.35;;
67248;SDS011;63247;54.300;18.592;2023-06-04T08:42:37;2.93;;;1.20;;
67248;SDS011;63247;54.300;18.592;2023-06-04T08:45:07;2.97;;;1.30;;
67248;SDS011;63247;54.300;18.592;2023-06-04T08:47:37;2.95;;;1.60;;
67248;SDS011;63247;54.300;18.592;2023-06-04T08:50:05;4.50;;;1.30;;
67248;SDS011;63247;54.300;18.592;2023-06-04T08:52:34;2.75;;;1.33;;
67248;SDS011;63247;54.300;18.592;2023-06-04T08:55:00;3.50;;;1.30;;
67248;SDS011;63247;54.300;18.592;2023-06-04T08:57:27;3.40;;;1.48;;
67248;SDS011;63247;54.300;18.592;2023-06-04T08:59:55;2.35;;;1.20;;
67248;SDS011;63247;54.300;18.592;2023-06-04T09:02:20;2.37;;;1.20;;
67248;SDS011;63247;54.300;18.592;2023-06-04T09:04:46;2.70;;;1.50;;
67248;SDS011;63247;54.300;18.592;2023-06-04T09:07:12;3.40;;;1.20;;
67248;SDS011;63247;54.300;18.592;2023-06-04T09:09:39;2.75;;;1.40;;
67248;SDS011;63247;54.300;18.592;2023-06-04T09:12:10;3.85;;;1.30;;
67248;SDS011;63247;54.300;18.592;2023-06-04T09:14:39;3.08;;;1.50;;
67248;SDS011;63247;54.300;18.592;2023-06-04T09:17:05;3.43;;;1.30;;
67248;SDS011;63247;54.300;18.592;2023-06-04T09:19:31;3.97;;;1.40;;
67248;SDS011;63247;54.300;18.592;2023-06-04T09:21:57;3.13;;;1.20;;
67248;SDS011;63247;54.300;18.592;2023-06-04T09:24:24;5.00;;;1.45;;
67248;SDS011;63247;54.300;18.592;2023-06-04T09:26:51;2.57;;;1.20;;
67248;SDS011;63247;54.300;18.592;2023-06-04T09:29:17;3.47;;;1.20;;
67248;SDS011;63247;54.300;18.592;2023-06-04T09:31:46;5.15;;;1.10;;
67248;SDS011;63247;54.300;18.592;2023-06-04T09:34:27;2.55;;;1.15;;
67248;SDS011;63247;54.300;18.592;2023-06-04T09:36:53;2.75;;;1.10;;
67248;SDS011;63247;54.300;18.592;2023-06-04T09:39:20;4.63;;;1.10;;
67248;SDS011;63247;54.300;18.592;2023-06-04T09:41:56;2.55;;;1.00;;
67248;SDS011;63247;54.300;18.592;2023-06-04T09:44:22;2.33;;;0.90;;
67248;SDS011;63247;54.300;18.592;2023-06-04T09:46:57;2.77;;;1.00;;
67248;SDS011;63247;54.300;18.592;2023-06-04T09:49:23;3.63;;;1.10;;
67248;SDS011;63247;54.300;18.592;2023-06-04T09:51:49;10.87;;;1.50;;
67248;SDS011;63247;54.300;18.592;2023-06-04T09:54:15;4.95;;;1.70;;
67248;SDS011;63247;54.300;18.592;2023-06-04T09:56:41;4.75;;;1.45;;
67248;SDS011;63247;54.300;18.592;2023-06-04T09:59:08;5.90;;;1.70;;
67248;SDS011;63247;54.300;18.592;2023-06-04T10:01:36;5.18;;;1.60;;
67248;SDS011;63247;54.300;18.592;2023-06-04T10:04:05;2.63;;;1.23;;
67248;SDS011;63247;54.300;18.592;2023-06-04T10:06:34;5.60;;;1.50;;
67248;SDS011;63247;54.300;18.592;2023-06-04T10:09:04;5.85;;;1.35;;
67248;SDS011;63247;54.300;18.592;2023-06-04T10:11:37;3.00;;;1.40;;
67248;SDS011;63247;54.300;18.592;2023-06-04T10:14:10;4.85;;;1.38;;
67248;SDS011;63247;54.300;18.592;2023-06-04T10:16:48;3.15;;;1.33;;
67248;SDS011;63247;54.300;18.592;2023-06-04T10:19:15;5.55;;;1.50;;
67248;SDS011;63247;54.300;18.592;2023-06-04T10:21:42;5.13;;;1.30;;
67248;SDS011;63247;54.300;18.592;2023-06-04T10:24:08;3.70;;;1.50;;
67248;SDS011;63247;54.300;18.592;2023-06-04T10:26:34;4.28;;;1.60;;
67248;SDS011;63247;54.300;18.592;2023-06-04T10:29:02;3.00;;;1.48;;
67248;SDS011;63247;54.300;18.592;2023-06-04T10:31:28;3.87;;;1.53;;
67248;SDS011;63247;54.300;18.592;2023-06-04T10:33:55;4.35;;;1.52;;
67248;SDS011;63247;54.300;18.592;2023-06-04T10:36:21;3.80;;;1.38;;
67248;SDS011;63247;54.300;18.592;2023-06-04T10:38:52;4.72;;;1.60;;
67248;SDS011;63247;54.300;18.592;2023-06-04T10:41:19;4.60;;;1.50;;
67248;SDS011;63247;54.300;18.592;2023-06-04T10:43:46;4.78;;;1.67;;
67248;SDS011;63247;54.300;18.592;2023-06-04T10:46:19;3.40;;;1.30;;
67248;SDS011;63247;54.300;18.592;2023-06-04T10:48:48;4.15;;;1.30;;
67248;SDS011;63247;54.300;18.592;2023-06-04T10:51:15;5.03;;;1.77;;
67248;SDS011;63247;54.300;18.592;2023-06-04T10:53:53;3.70;;;1.30;;
67248;SDS011;63247;54.300;18.592;2023-06-04T10:56:28;4.45;;;1.35;;
67248;SDS011;63247;54.300;18.592;2023-06-04T10:58:57;4.57;;;1.30;;
67248;SDS011;63247;54.300;18.592;2023-06-04T11:01:26;5.70;;;1.40;;
67248;SDS011;63247;54.300;18.592;2023-06-04T11:03:53;3.40;;;1.30;;
67248;SDS011;63247;54.300;18.592;2023-06-04T11:06:20;4.95;;;1.40;;
67248;SDS011;63247;54.300;18.592;2023-06-04T11:08:47;4.82;;;1.48;;
67248;SDS011;63247;54.300;18.592;2023-06-04T11:11:16;3.47;;;1.43;;
67248;SDS011;63247;54.300;18.592;2023-06-04T11:13:42;3.92;;;1.70;;
67248;SDS011;63247;54.300;18.592;2023-06-04T11:16:18;3.65;;;1.60;;
67248;SDS011;63247;54.300;18.592;2023-06-04T11:18:54;3.47;;;1.33;;
67248;SDS011;63247;54.300;18.592;2023-06-04T11:21:21;3.80;;;1.17;;
67248;SDS011;63247;54.300;18.592;2023-06-04T11:23:47;5.97;;;1.70;;
67248;SDS011;63247;54.300;18.592;2023-06-04T11:26:13;4.10;;;1.10;;
67248;SDS011;63247;54.300;18.592;2023-06-04T11:28:39;3.03;;;1.27;;
67248;SDS011;63247;54.300;18.592;2023-06-04T11:31:09;4.18;;;1.10;;
67248;SDS011;63247;54.300;18.592;2023-06-04T11:33:44;4.37;;;1.17;;
67248;SDS011;63247;54.300;18.592;2023-06-04T11:36:11;5.78;;;1.58;;
67248;SDS011;63247;54.300;18.592;2023-06-04T11:38:54;4.75;;;1.25;;
67248;SDS011;63247;54.300;18.592;2023-06-04T11:41:21;3.67;;;1.40;;
67248;SDS011;63247;54.300;18.592;2023-06-04T11:43:49;4.68;;;1.40;;
67248;SDS011;63247;54.300;18.592;2023-06-04T11:46:15;5.97;;;1.70;;
67248;SDS011;63247;54.300;18.592;2023-06-04T11:48:41;3.53;;;1.50;;
67248;SDS011;63247;54.300;18.592;2023-06-04T11:51:07;7.28;;;1.70;;
67248;SDS011;63247;54.300;18.592;2023-06-04T11:53:36;2.85;;;1.50;;
67248;SDS011;63247;54.300;18.592;2023-06-04T11:56:02;3.20;;;1.20;;
67248;SDS011;63247;54.300;18.592;2023-06-04T11:58:27;3.53;;;1.40;;
67248;SDS011;63247;54.300;18.592;2023-06-04T12:00:54;2.70;;;1.13;;
67248;SDS011;63247;54.300;18.592;2023-06-04T12:03:31;2.97;;;1.15;;
67248;SDS011;63247;54.300;18.592;2023-06-04T12:06:15;4.30;;;1.10;;
67248;SDS011;63247;54.300;18.592;2023-06-04T12:08:46;4.30;;;1.02;;
67248;SDS011;63247;54.300;18.592;2023-06-04T12:11:29;3.53;;;1.30;;
67248;SDS011;63247;54.300;18.592;2023-06-04T12:13:59;2.90;;;0.93;;
67248;SDS011;63247;54.300;18.592;2023-06-04T12:16:31;3.58;;;1.30;;
67248;SDS011;63247;54.300;18.592;2023-06-04T12:19:09;3.97;;;1.63;;
67248;SDS011;63247;54.300;18.592;2023-06-04T12:21:36;5.53;;;1.90;;
67248;SDS011;63247;54.300;18.592;2023-06-04T12:24:08;5.90;;;2.00;;
67248;SDS011;63247;54.300;18.592;2023-06-04T12:26:35;5.38;;;1.35;;
67248;SDS011;63247;54.300;18.592;2023-06-04T12:29:12;3.72;;;1.10;;
67248;SDS011;63247;54.300;18.592;2023-06-04T12:31:39;3.63;;;1.10;;
67248;SDS011;63247;54.300;18.592;2023-06-04T12:34:05;4.63;;;1.20;;
67248;SDS011;63247;54.300;18.592;2023-06-04T12:36:31;5.15;;;1.10;;
67248;SDS011;63247;54.300;18.592;2023-06-04T12:39:01;4.88;;;1.00;;
67248;SDS011;63247;54.300;18.592;2023-06-04T12:41:28;5.00;;;0.90;;
67248;SDS011;63247;54.300;18.592;2023-06-04T12:43:54;3.72;;;1.05;;
67248;SDS011;63247;54.300;18.592;2023-06-04T12:46:20;5.07;;;1.13;;
67248;SDS011;63247;54.300;18.592;2023-06-04T12:48:47;3.15;;;1.10;;
67248;SDS011;63247;54.300;18.592;2023-06-04T12:51:13;2.78;;;1.10;;
67248;SDS011;63247;54.300;18.592;2023-06-04T12:53:38;4.05;;;1.20;;
67248;SDS011;63247;54.300;18.592;2023-06-04T12:56:05;3.45;;;1.05;;
67248;SDS011;63247;54.300;18.592;2023-06-04T12:58:30;3.20;;;1.35;;
67248;SDS011;63247;54.300;18.592;2023-06-04T13:00:56;4.97;;;1.23;;
67248;SDS011;63247;54.300;18.592;2023-06-04T13:03:21;6.40;;;1.37;;
67248;SDS011;63247;54.300;18.592;2023-06-04T13:05:46;3.25;;;1.00;;
67248;SDS011;63247;54.300;18.592;2023-06-04T13:08:12;3.57;;;0.93;;
67248;SDS011;63247;54.300;18.592;2023-06-04T13:10:37;5.50;;;1.10;;
67248;SDS011;63247;54.300;18.592;2023-06-04T13:13:02;4.57;;;1.03;;
67248;SDS011;63247;54.300;18.592;2023-06-04T13:15:28;4.87;;;1.10;;
67248;SDS011;63247;54.300;18.592;2023-06-04T13:17:54;4.22;;;0.80;;
67248;SDS011;63247;54.300;18.592;2023-06-04T13:20:20;3.93;;;1.10;;
67248;SDS011;63247;54.300;18.592;2023-06-04T13:22:45;5.55;;;1.05;;
67248;SDS011;63247;54.300;18.592;2023-06-04T13:25:12;2.78;;;0.80;;
67248;SDS011;63247;54.300;18.592;2023-06-04T13:27:38;3.37;;;0.90;;
67248;SDS011;63247;54.300;18.592;2023-06-04T13:30:06;3.97;;;0.90;;
67248;SDS011;63247;54.300;18.592;2023-06-04T13:32:31;3.70;;;0.75;;
67248;SDS011;63247;54.300;18.592;2023-06-04T13:34:57;3.00;;;0.90;;
67248;SDS011;63247;54.300;18.592;2023-06-04T13:37:22;6.37;;;1.00;;
67248;SDS011;63247;54.300;18.592;2023-06-04T13:39:48;5.80;;;0.95;;
67248;SDS011;63247;54.300;18.592;2023-06-04T13:42:13;3.03;;;0.73;;
67248;SDS011;63247;54.300;18.592;2023-06-04T13:44:38;3.23;;;0.87;;
67248;SDS011;63247;54.300;18.592;2023-06-04T13:47:04;3.83;;;0.80;;
67248;SDS011;63247;54.300;18.592;2023-06-04T13:49:32;3.88;;;0.80;;
67248;SDS011;63247;54.300;18.592;2023-06-04T13:51:58;5.47;;;0.80;;
67248;SDS011;63247;54.300;18.592;2023-06-04T13:54:23;4.43;;;0.90;;
67248;SDS011;63247;54.300;18.592;2023-06-04T13:56:48;3.50;;;0.80;;
67248;SDS011;63247;54.300;18.592;2023-06-04T13:59:14;3.43;;;0.87;;
67248;SDS011;63247;54.300;18.592;2023-06-04T14:01:39;3.77;;;0.90;;
67248;SDS011;63247;54.300;18.592;2023-06-04T14:04:05;2.58;;;0.80;;
67248;SDS011;63247;54.300;18.592;2023-06-04T14:06:31;3.30;;;0.98;;
67248;SDS011;63247;54.300;18.592;2023-06-04T14:08:57;5.93;;;0.87;;
67248;SDS011;63247;54.300;18.592;2023-06-04T14:11:23;7.00;;;0.88;;
67248;SDS011;63247;54.300;18.592;2023-06-04T14:13:48;3.17;;;1.08;;
67248;SDS011;63247;54.300;18.592;2023-06-04T14:16:13;4.60;;;1.00;;
67248;SDS011;63247;54.300;18.592;2023-06-04T14:18:39;2.58;;;0.95;;
67248;SDS011;63247;54.300;18.592;2023-06-04T14:21:05;2.43;;;0.83;;
67248;SDS011;63247;54.300;18.592;2023-06-04T14:23:30;5.83;;;1.00;;
67248;SDS011;63247;54.300;18.592;2023-06-04T14:25:55;4.57;;;0.80;;
67248;SDS011;63247;54.300;18.592;2023-06-04T14:28:21;5.53;;;0.77;;
67248;SDS011;63247;54.300;18.592;2023-06-04T14:30:46;6.30;;;0.93;;